createdAt,value
2022-12-17T00:01:39.818Z,-2.70
2022-12-17T00:04:43.703Z,-2.70
2022-12-17T00:07:47.871Z,-2.80
2022-12-17T00:10:51.917Z,-2.90
2022-12-17T00:13:55.935Z,-3.00
2022-12-17T00:17:10.029Z,-3.20
2022-12-17T00:20:14.196Z,-3.30
2022-12-17T00:23:17.916Z,-3.40
2022-12-17T00:26:22.249Z,-3.60
2022-12-17T00:29:26.762Z,-3.90
2022-12-17T00:32:32.062Z,-4.00
2022-12-17T00:35:36.105Z,-4.10
2022-12-17T00:38:40.500Z,-4.20
2022-12-17T00:41:44.898Z,-4.20
2022-12-17T00:44:48.898Z,-4.20
2022-12-17T00:47:54.163Z,-4.10
2022-12-17T00:50:58.337Z,-4.20
2022-12-17T00:54:02.749Z,-4.20
2022-12-17T00:57:06.704Z,-4.00
2022-12-17T01:00:11.928Z,-3.90
2022-12-17T01:03:24.873Z,-4.30
2022-12-17T01:06:29.008Z,-4.50
2022-12-17T01:09:33.007Z,-4.40
2022-12-17T01:12:51.466Z,-4.40
2022-12-17T01:15:57.107Z,-4.30
2022-12-17T01:19:01.017Z,-4.10
2022-12-17T01:22:05.056Z,-4.10
2022-12-17T01:25:08.936Z,-4.20
2022-12-17T01:28:15.337Z,-4.10
2022-12-17T01:31:19.486Z,-4.10
2022-12-17T01:34:23.885Z,-4.10
2022-12-17T01:37:27.833Z,-4.10
2022-12-17T01:40:35.327Z,-4.20
2022-12-17T01:44:01.752Z,-4.30
2022-12-17T01:47:09.462Z,-4.10
2022-12-17T01:50:13.357Z,-4.20
2022-12-17T01:53:21.084Z,-4.20
2022-12-17T01:56:29.954Z,-4.40
2022-12-17T01:59:40.333Z,-4.50
2022-12-17T02:02:44.517Z,-4.50
2022-12-17T02:05:56.843Z,-4.60
2022-12-17T02:09:09.514Z,-4.60
2022-12-17T02:12:21.971Z,-4.80
2022-12-17T02:15:35.987Z,-4.90
2022-12-17T02:18:43.111Z,-5.10
2022-12-17T02:21:50.097Z,-5.30
2022-12-17T02:25:02.780Z,-5.30
2022-12-17T02:28:11.516Z,-5.30
2022-12-17T02:31:17.171Z,-5.20
2022-12-17T02:34:21.360Z,-5.20
2022-12-17T02:37:24.149Z,-4.90
2022-12-17T02:40:29.449Z,-4.90
2022-12-17T02:43:35.820Z,-5.00
2022-12-17T02:46:40.326Z,-5.20
2022-12-17T02:49:44.868Z,-5.30
2022-12-17T02:52:51.441Z,-5.40
2022-12-17T02:55:55.915Z,-5.60
2022-12-17T02:59:01.276Z,-5.80
2022-12-17T03:02:05.468Z,-5.90
2022-12-17T03:05:35.488Z,-5.90
2022-12-17T03:08:34.013Z,-5.70
2022-12-17T03:11:38.017Z,-5.40
2022-12-17T03:14:43.503Z,-5.10
2022-12-17T03:17:48.449Z,-5.10
2022-12-17T03:21:00.834Z,-5.10
2022-12-17T03:24:04.929Z,-5.10
2022-12-17T03:27:08.791Z,-5.10
2022-12-17T03:30:14.542Z,-4.90
2022-12-17T03:33:18.643Z,-4.80
2022-12-17T03:36:23.124Z,-4.80
2022-12-17T03:39:27.008Z,-4.60
2022-12-17T03:42:31.026Z,-4.60
2022-12-17T03:45:36.645Z,-4.40
2022-12-17T03:48:40.809Z,-4.20
2022-12-17T03:51:45.324Z,-4.10
2022-12-17T03:54:49.375Z,-4.10
2022-12-17T03:57:53.403Z,-4.10
2022-12-17T04:00:58.870Z,-3.90
2022-12-17T04:04:02.875Z,-3.90
2022-12-17T04:07:07.681Z,-4.00
2022-12-17T04:10:11.510Z,-4.00
2022-12-17T04:13:15.708Z,-3.80
2022-12-17T04:16:21.057Z,-3.80
2022-12-17T04:19:24.731Z,-3.60
2022-12-17T04:22:28.821Z,-3.80
2022-12-17T04:25:32.837Z,-3.70
2022-12-17T04:28:36.882Z,-3.50
2022-12-17T04:31:42.931Z,-3.40
2022-12-17T04:34:58.621Z,-3.30
2022-12-17T04:38:02.910Z,-3.10
2022-12-17T04:41:07.471Z,-3.10
2022-12-17T04:44:11.469Z,-2.90
2022-12-17T04:47:16.809Z,-2.90
2022-12-17T04:50:20.910Z,-2.80
2022-12-17T04:53:26.352Z,-3.20
2022-12-17T04:56:30.342Z,-3.40
2022-12-17T04:59:34.262Z,-3.40
2022-12-17T05:02:42.832Z,-3.60
2022-12-17T05:05:47.001Z,-3.70
2022-12-17T05:08:51.058Z,-3.80
2022-12-17T05:11:54.908Z,-4.00
2022-12-17T05:14:58.945Z,-3.90
2022-12-17T05:18:04.596Z,-3.90
2022-12-17T05:21:10.778Z,-3.90
2022-12-17T05:24:15.441Z,-3.80
2022-12-17T05:27:19.623Z,-3.60
2022-12-17T05:30:24.566Z,-3.40
2022-12-17T05:33:29.985Z,-3.40
2022-12-17T05:36:33.875Z,-3.70
2022-12-17T05:39:46.361Z,-3.70
2022-12-17T05:42:50.718Z,-3.90
2022-12-17T05:45:56.590Z,-4.00
2022-12-17T05:49:02.068Z,-4.00
2022-12-17T05:52:06.131Z,-4.00
2022-12-17T05:55:10.087Z,-4.00
2022-12-17T05:58:20.720Z,-4.20
2022-12-17T06:01:25.091Z,-4.60
2022-12-17T06:04:30.631Z,-4.60
2022-12-17T06:07:34.652Z,-4.30
2022-12-17T06:10:38.497Z,-4.40
2022-12-17T06:13:42.602Z,-4.20
2022-12-17T06:16:46.636Z,-4.10
2022-12-17T06:19:52.273Z,-4.30
2022-12-17T06:22:56.346Z,-4.60
2022-12-17T06:26:00.322Z,-4.60
2022-12-17T06:29:04.448Z,-4.50
2022-12-17T06:32:08.301Z,-4.60
2022-12-17T06:35:13.642Z,-4.80
2022-12-17T06:38:18.289Z,-5.00
2022-12-17T06:41:22.821Z,-5.00
2022-12-17T06:44:27.124Z,-5.20
2022-12-17T06:47:31.383Z,-5.10
2022-12-17T06:50:36.937Z,-5.00
2022-12-17T06:53:41.622Z,-5.10
2022-12-17T06:56:46.074Z,-5.30
2022-12-17T06:59:50.147Z,-5.40
2022-12-17T07:02:54.490Z,-5.40
2022-12-17T07:05:59.704Z,-5.30
2022-12-17T07:09:04.112Z,-5.40
2022-12-17T07:12:08.206Z,-5.40
2022-12-17T07:15:12.464Z,-5.50
2022-12-17T07:18:18.011Z,-5.50
2022-12-17T07:21:23.335Z,-5.60
2022-12-17T07:24:28.284Z,-5.60
2022-12-17T07:27:32.362Z,-5.60
2022-12-17T07:30:35.487Z,-5.90
2022-12-17T07:33:36.676Z,-6.00
2022-12-17T07:36:50.923Z,-5.90
2022-12-17T07:39:55.264Z,-5.90
2022-12-17T07:43:04.726Z,-6.20
2022-12-17T07:46:05.231Z,-6.50
2022-12-17T07:49:08.671Z,-6.60
2022-12-17T07:52:10.329Z,-6.60
2022-12-17T07:55:18.178Z,-6.70
2022-12-17T07:58:24.388Z,-6.60
2022-12-17T08:01:28.516Z,-6.60
2022-12-17T08:04:32.764Z,-6.40
2022-12-17T08:07:38.285Z,-6.20
2022-12-17T08:10:42.220Z,-6.10
2022-12-17T08:13:46.392Z,-5.80
2022-12-17T08:16:50.341Z,-5.70
2022-12-17T08:19:54.367Z,-5.40
2022-12-17T08:22:59.887Z,-5.20
2022-12-17T08:26:03.853Z,-5.00
2022-12-17T08:29:07.824Z,-4.80
2022-12-17T08:32:11.945Z,-4.60
2022-12-17T08:35:16.499Z,-4.70
2022-12-17T08:38:24.346Z,-4.60
2022-12-17T08:41:28.331Z,-4.60
2022-12-17T08:44:32.260Z,-4.60
2022-12-17T08:47:36.227Z,-4.50
2022-12-17T08:50:40.134Z,-4.50
2022-12-17T08:53:45.483Z,-4.50
2022-12-17T08:56:49.608Z,-4.40
2022-12-17T08:59:53.525Z,-4.30
2022-12-17T09:02:57.622Z,-4.40
2022-12-17T09:06:01.958Z,-4.30
2022-12-17T09:09:07.275Z,-4.30
2022-12-17T09:12:11.425Z,-4.20
2022-12-17T09:15:14.769Z,-4.10
2022-12-17T09:18:18.961Z,-4.00
2022-12-17T09:21:23.878Z,-4.20
2022-12-17T09:24:29.862Z,-4.00
2022-12-17T09:27:34.626Z,-4.10
2022-12-17T09:30:38.745Z,-4.00
2022-12-17T09:33:42.625Z,-3.90
2022-12-17T09:36:51.039Z,-3.90
2022-12-17T09:39:58.819Z,-3.80
2022-12-17T09:43:10.477Z,-3.70
2022-12-17T09:46:21.665Z,-3.70
2022-12-17T09:49:35.769Z,-3.60
2022-12-17T09:52:41.313Z,-3.40
2022-12-17T09:55:50.846Z,-3.40
2022-12-17T09:58:57.621Z,-3.30
2022-12-17T10:02:01.737Z,-3.30
2022-12-17T10:05:07.043Z,-3.20
2022-12-17T10:08:12.681Z,-3.20
2022-12-17T10:11:34.162Z,-3.00
2022-12-17T10:14:40.235Z,-2.90
2022-12-17T10:17:44.351Z,-3.00
2022-12-17T10:20:54.400Z,-2.90
2022-12-17T10:23:58.493Z,-2.90
2022-12-17T10:27:07.462Z,-3.00
2022-12-17T10:30:11.344Z,-2.90
2022-12-17T10:33:15.286Z,-2.90
2022-12-17T10:36:19.356Z,-2.80
2022-12-17T10:39:24.555Z,-3.00
2022-12-17T10:42:41.198Z,-2.90
2022-12-17T10:45:59.473Z,-2.90
2022-12-17T10:49:09.775Z,-2.60
2022-12-17T10:52:20.450Z,-2.60
2022-12-17T10:55:36.886Z,-2.70
2022-12-17T10:58:46.004Z,-2.70
2022-12-17T11:01:50.740Z,-2.50
2022-12-17T11:04:55.471Z,-2.40
2022-12-17T11:08:01.952Z,-2.50
2022-12-17T11:11:07.282Z,-2.60
2022-12-17T11:14:14.349Z,-2.50
2022-12-17T11:17:21.407Z,-2.40
2022-12-17T11:20:44.985Z,-2.30
2022-12-17T11:23:51.196Z,-2.20
2022-12-17T11:26:58.176Z,-2.30
2022-12-17T11:30:03.719Z,-2.20
2022-12-17T11:33:26.384Z,-2.30
2022-12-17T11:36:38.771Z,-2.40
2022-12-17T11:39:52.972Z,-2.40
2022-12-17T11:43:12.879Z,-2.20
2022-12-17T11:46:27.720Z,-2.50
2022-12-17T11:49:43.032Z,-2.40
2022-12-17T11:52:53.532Z,-2.30
2022-12-17T11:56:05.739Z,-2.20
2022-12-17T11:59:18.102Z,-2.20
2022-12-17T12:02:35.913Z,-2.00
2022-12-17T12:05:52.042Z,-2.00
2022-12-17T12:09:10.370Z,-2.10
2022-12-17T12:12:29.782Z,-1.90
2022-12-17T12:15:43.208Z,-2.10
2022-12-17T12:19:01.179Z,-2.00
2022-12-17T12:22:15.227Z,-1.90
2022-12-17T12:25:35.377Z,-1.70
2022-12-17T12:28:50.352Z,-1.60
2022-12-17T12:32:01.140Z,-1.70
2022-12-17T12:35:06.547Z,-1.90
2022-12-17T12:38:10.990Z,-1.50
2022-12-17T12:41:25.121Z,-1.40
2022-12-17T12:44:37.772Z,-1.20
2022-12-17T12:47:48.723Z,-1.40
2022-12-17T12:51:03.825Z,-1.60
2022-12-17T12:54:15.729Z,-1.60
2022-12-17T12:57:19.828Z,-1.60
2022-12-17T13:00:24.637Z,-1.60
2022-12-17T13:03:40.001Z,-1.60
2022-12-17T13:06:44.724Z,-1.80
2022-12-17T13:09:39.776Z,-2.00
2022-12-17T13:12:32.838Z,-2.30
2022-12-17T13:15:32.773Z,-2.40
2022-12-17T13:18:25.459Z,-2.30
2022-12-17T13:21:26.289Z,-2.30
2022-12-17T13:24:25.422Z,-2.30
2022-12-17T13:27:28.830Z,-2.40
2022-12-17T13:30:33.643Z,-2.40
2022-12-17T13:33:29.506Z,-2.50
2022-12-17T13:36:21.747Z,-2.60
2022-12-17T13:39:28.463Z,-2.50
2022-12-17T13:42:28.558Z,-2.40
2022-12-17T13:45:17.780Z,-2.30
2022-12-17T13:48:05.199Z,-2.30
2022-12-17T13:50:56.182Z,-2.40
2022-12-17T13:53:53.738Z,-2.40
2022-12-17T13:56:42.751Z,-2.30
2022-12-17T13:59:29.855Z,-2.40
2022-12-17T14:02:26.856Z,-2.30
2022-12-17T14:05:25.187Z,-2.30
2022-12-17T14:08:17.848Z,-2.30
2022-12-17T14:11:22.128Z,-2.30
2022-12-17T14:14:17.282Z,-2.50
2022-12-17T14:17:04.279Z,-2.50
2022-12-17T14:19:58.197Z,-2.60
2022-12-17T14:22:51.713Z,-2.60
2022-12-17T14:25:40.853Z,-2.80
2022-12-17T14:28:33.007Z,-2.80
2022-12-17T14:31:27.520Z,-2.70
2022-12-17T14:34:14.906Z,-2.70
2022-12-17T14:37:01.765Z,-2.70
2022-12-17T14:39:50.143Z,-2.70
2022-12-17T14:42:38.222Z,-2.60
2022-12-17T14:45:27.122Z,-2.70
2022-12-17T14:48:17.024Z,-2.70
2022-12-17T14:51:03.495Z,-2.70
2022-12-17T14:53:50.273Z,-2.70
2022-12-17T14:56:37.219Z,-2.70
2022-12-17T14:59:31.709Z,-2.90
2022-12-17T15:02:24.244Z,-2.90
2022-12-17T15:05:16.254Z,-2.90
2022-12-17T15:08:02.857Z,-2.90
2022-12-17T15:10:49.713Z,-3.00
2022-12-17T15:13:36.506Z,-3.10
2022-12-17T15:16:23.104Z,-3.10
2022-12-17T15:19:10.376Z,-3.20
2022-12-17T15:21:58.431Z,-3.20
2022-12-17T15:24:45.258Z,-3.30
2022-12-17T15:27:31.551Z,-3.20
2022-12-17T15:30:19.724Z,-3.30
2022-12-17T15:33:06.465Z,-3.30
2022-12-17T15:35:53.494Z,-3.40
2022-12-17T15:38:41.532Z,-3.50
2022-12-17T15:41:46.263Z,-3.60
2022-12-17T15:44:32.976Z,-3.80
2022-12-17T15:47:19.388Z,-3.80
2022-12-17T15:50:07.167Z,-3.70
2022-12-17T15:52:55.988Z,-3.70
2022-12-17T15:55:44.669Z,-3.70
2022-12-17T15:58:32.041Z,-3.80
2022-12-17T16:01:19.710Z,-3.80
2022-12-17T16:04:11.998Z,-3.80
2022-12-17T16:07:02.442Z,-3.80
2022-12-17T16:09:48.886Z,-3.90
2022-12-17T16:12:37.063Z,-3.90
2022-12-17T16:15:24.517Z,-3.90
2022-12-17T16:18:11.065Z,-4.10
2022-12-17T16:21:04.224Z,-4.20
2022-12-17T16:23:51.172Z,-4.20
2022-12-17T16:26:38.845Z,-4.10
2022-12-17T16:29:26.579Z,-4.30
2022-12-17T16:32:13.393Z,-4.40
2022-12-17T16:35:00.174Z,-4.40
2022-12-17T16:37:46.436Z,-4.40
2022-12-17T16:40:32.893Z,-4.50
2022-12-17T16:43:19.502Z,-4.50
2022-12-17T16:46:12.143Z,-4.50
2022-12-17T16:49:00.637Z,-4.50
2022-12-17T16:51:57.859Z,-4.40
2022-12-17T16:54:44.874Z,-4.40
2022-12-17T16:57:31.657Z,-4.50
2022-12-17T17:00:18.423Z,-4.60
2022-12-17T17:03:08.867Z,-4.60
2022-12-17T17:06:04.735Z,-4.50
2022-12-17T17:08:55.940Z,-4.50
2022-12-17T17:11:46.894Z,-4.60
2022-12-17T17:14:36.321Z,-4.60
2022-12-17T17:17:54.893Z,-4.60
2022-12-17T17:20:34.268Z,-4.60
2022-12-17T17:23:22.802Z,-4.70
2022-12-17T17:26:10.607Z,-4.70
2022-12-17T17:28:57.548Z,-4.70
2022-12-17T17:34:51.188Z,-4.70
2022-12-17T17:37:38.936Z,-4.70
2022-12-17T17:40:25.964Z,-4.70
2022-12-17T17:43:12.752Z,-4.70
2022-12-17T17:46:06.048Z,-4.70
2022-12-17T17:48:56.885Z,-4.70
2022-12-17T17:54:52.870Z,-4.70
2022-12-17T17:57:39.460Z,-4.70
2022-12-17T18:00:25.952Z,-4.70
2022-12-17T18:03:12.565Z,-4.60
2022-12-17T18:06:02.938Z,-4.50
2022-12-17T18:08:49.442Z,-4.40
2022-12-17T18:11:38.345Z,-4.50
2022-12-17T18:14:24.211Z,-4.50
2022-12-17T18:17:10.641Z,-4.60
2022-12-17T18:19:57.245Z,-4.60
2022-12-17T18:22:44.918Z,-4.70
2022-12-17T18:25:35.822Z,-4.70
2022-12-17T18:28:25.534Z,-4.60
2022-12-17T18:31:14.927Z,-4.70
2022-12-17T18:34:04.132Z,-4.60
2022-12-17T18:36:51.520Z,-4.70
2022-12-17T18:39:38.067Z,-4.80
2022-12-17T18:42:42.230Z,-4.90
2022-12-17T18:45:30.433Z,-5.00
2022-12-17T18:48:16.959Z,-5.20
2022-12-17T18:51:06.394Z,-5.20
2022-12-17T18:53:56.790Z,-5.30
2022-12-17T18:59:50.811Z,-5.20
2022-12-17T19:02:38.767Z,-5.20
2022-12-17T19:05:25.635Z,-5.20
2022-12-17T19:08:12.176Z,-5.10
2022-12-17T19:11:05.532Z,-5.10
2022-12-17T19:13:52.201Z,-4.90
2022-12-17T19:16:38.998Z,-4.90
2022-12-17T19:19:27.227Z,-4.90
2022-12-17T19:22:13.557Z,-5.00
2022-12-17T19:24:59.844Z,-5.10
2022-12-17T19:27:46.355Z,-5.20
2022-12-17T19:30:32.778Z,-5.10
2022-12-17T19:33:19.111Z,-5.00
2022-12-17T19:36:09.294Z,-5.10
2022-12-17T19:38:57.532Z,-5.20
2022-12-17T19:41:44.669Z,-5.30
2022-12-17T19:44:31.111Z,-5.40
2022-12-17T19:47:17.502Z,-5.40
2022-12-17T19:50:04.392Z,-5.50
2022-12-17T19:52:52.289Z,-5.40
2022-12-17T19:55:39.338Z,-5.30
2022-12-17T19:58:26.425Z,-5.30
2022-12-17T20:01:15.977Z,-5.30
2022-12-17T20:04:02.714Z,-5.20
2022-12-17T20:06:49.237Z,-5.10
2022-12-17T20:09:37.133Z,-5.20
2022-12-17T20:12:23.740Z,-5.30
2022-12-17T20:15:10.962Z,-5.50
2022-12-17T20:17:57.367Z,-5.50
2022-12-17T20:20:43.624Z,-5.40
2022-12-17T20:23:30.314Z,-5.50
2022-12-17T20:26:19.338Z,-5.50
2022-12-17T20:29:06.453Z,-5.50
2022-12-17T20:31:54.127Z,-5.50
2022-12-17T20:34:41.424Z,-5.50
2022-12-17T20:37:27.847Z,-5.40
2022-12-17T20:40:14.238Z,-5.30
2022-12-17T20:43:03.717Z,-5.20
2022-12-17T20:45:51.021Z,-5.10
2022-12-17T20:48:38.432Z,-5.10
2022-12-17T20:51:27.053Z,-5.20
2022-12-17T20:54:13.758Z,-5.20
2022-12-17T20:57:00.246Z,-5.10
2022-12-17T20:59:48.456Z,-5.10
2022-12-17T21:02:34.886Z,-5.10
2022-12-17T21:05:21.686Z,-5.20
2022-12-17T21:08:08.032Z,-5.10
2022-12-17T21:10:57.000Z,-5.10
2022-12-17T21:13:43.815Z,-5.10
2022-12-17T21:16:33.306Z,-5.30
2022-12-17T21:19:20.892Z,-5.20
2022-12-17T21:22:08.242Z,-5.20
2022-12-17T21:24:56.654Z,-5.20
2022-12-17T21:27:44.444Z,-5.30
2022-12-17T21:30:30.948Z,-5.20
2022-12-17T21:33:18.825Z,-5.30
2022-12-17T21:36:07.986Z,-5.30
2022-12-17T21:38:55.298Z,-5.30
2022-12-17T21:41:44.758Z,-5.40
2022-12-17T21:44:32.168Z,-5.40
2022-12-17T21:47:18.792Z,-5.30
2022-12-17T21:50:07.611Z,-5.40
2022-12-17T21:52:54.054Z,-5.50
2022-12-17T21:55:40.483Z,-5.70
2022-12-17T21:58:27.561Z,-5.80
2022-12-17T22:01:18.869Z,-5.80
2022-12-17T22:04:06.566Z,-5.70
2022-12-17T22:06:57.641Z,-5.60
2022-12-17T22:10:22.256Z,-5.60
2022-12-17T22:13:16.588Z,-5.50
2022-12-17T22:16:07.390Z,-5.40
2022-12-17T22:18:54.533Z,-5.30
2022-12-17T22:21:43.298Z,-5.40
2022-12-17T22:24:36.100Z,-5.40
2022-12-17T22:27:23.548Z,-5.40
2022-12-17T22:30:33.023Z,-5.40
2022-12-17T22:34:15.749Z,-5.40
2022-12-17T22:39:20.936Z,-5.40
2022-12-17T22:44:30.752Z,-5.40
2022-12-17T22:44:46.298Z,-5.40
2022-12-17T22:46:07.419Z,-5.30
2022-12-17T22:48:54.159Z,-5.30
2022-12-17T22:51:42.275Z,-5.40
2022-12-17T22:54:30.007Z,-5.50
2022-12-17T22:57:35.376Z,-5.50
2022-12-17T23:00:26.869Z,-5.50
2022-12-17T23:03:13.590Z,-5.40
2022-12-17T23:06:07.253Z,-5.40
2022-12-17T23:08:54.393Z,-5.50
2022-12-17T23:11:40.948Z,-5.40
2022-12-17T23:14:28.729Z,-5.30
2022-12-17T23:17:15.184Z,-5.40
2022-12-17T23:20:01.744Z,-5.40
2022-12-17T23:22:48.444Z,-5.30
2022-12-17T23:25:34.998Z,-5.40
2022-12-17T23:28:21.331Z,-5.50
2022-12-17T23:31:10.994Z,-5.70
2022-12-17T23:33:57.773Z,-5.70
2022-12-17T23:36:44.201Z,-5.70
2022-12-17T23:39:30.633Z,-5.80
2022-12-17T23:42:17.512Z,-5.80
2022-12-17T23:45:04.622Z,-5.70
2022-12-17T23:47:52.532Z,-5.60
2022-12-17T23:50:39.030Z,-5.60
2022-12-17T23:53:25.468Z,-5.60
2022-12-17T23:56:14.646Z,-5.60
2022-12-17T23:59:03.139Z,-5.60
